createdAt,value
2019-05-18T00:00:40.306Z,56.50
2019-05-18T00:03:09.111Z,56.10
2019-05-18T00:05:37.770Z,55.80
2019-05-18T00:08:06.440Z,55.60
2019-05-18T00:10:34.995Z,55.40
2019-05-18T00:13:03.631Z,55.00
2019-05-18T00:15:32.291Z,54.70
2019-05-18T00:18:00.890Z,55.10
2019-05-18T00:20:29.523Z,55.80
2019-05-18T00:22:58.125Z,55.80
2019-05-18T00:25:26.790Z,55.80
2019-05-18T00:27:55.631Z,55.50
2019-05-18T00:30:24.215Z,56.30
2019-05-18T00:32:52.806Z,56.40
2019-05-18T00:35:21.551Z,56.40
2019-05-18T00:37:50.172Z,56.60
2019-05-18T00:40:19.009Z,57.40
2019-05-18T00:42:47.670Z,56.30
2019-05-18T00:45:17.651Z,57.00
2019-05-18T00:47:46.449Z,57.00
2019-05-18T00:50:15.470Z,57.20
2019-05-18T00:52:44.125Z,56.80
2019-05-18T00:55:13.254Z,57.50
2019-05-18T00:57:41.847Z,57.10
2019-05-18T01:00:12.847Z,57.00
2019-05-18T01:02:41.463Z,57.30
2019-05-18T01:05:10.496Z,57.20
2019-05-18T01:07:39.216Z,57.50
2019-05-18T01:10:08.623Z,57.90
2019-05-18T01:12:36.510Z,58.00
2019-05-18T01:15:07.671Z,58.50
2019-05-18T01:17:36.504Z,59.30
2019-05-18T01:20:07.282Z,58.60
2019-05-18T01:22:35.902Z,59.10
2019-05-18T01:25:05.240Z,59.10
2019-05-18T01:27:33.882Z,59.10
2019-05-18T01:30:02.595Z,58.90
2019-05-18T01:32:31.125Z,59.20
2019-05-18T01:34:59.696Z,59.00
2019-05-18T01:37:28.334Z,58.80
2019-05-18T01:39:56.933Z,59.20
2019-05-18T01:42:25.518Z,59.80
2019-05-18T01:44:54.141Z,59.20
2019-05-18T01:47:23.073Z,59.10
2019-05-18T01:49:51.840Z,59.30
2019-05-18T01:52:20.483Z,59.10
2019-05-18T01:54:49.159Z,59.80
2019-05-18T01:57:17.776Z,59.70
2019-05-18T01:59:46.362Z,59.50
2019-05-18T02:02:14.975Z,60.10
2019-05-18T02:04:43.583Z,59.70
2019-05-18T02:07:12.184Z,59.70
2019-05-18T02:09:40.751Z,60.00
2019-05-18T02:12:09.370Z,59.10
2019-05-18T02:14:37.921Z,60.00
2019-05-18T02:17:06.626Z,59.50
2019-05-18T02:19:35.219Z,59.60
2019-05-18T02:22:03.979Z,59.30
2019-05-18T02:24:32.569Z,60.20
2019-05-18T02:27:01.360Z,60.80
2019-05-18T02:29:29.933Z,59.90
2019-05-18T02:31:58.761Z,60.00
2019-05-18T02:34:27.387Z,59.80
2019-05-18T02:36:56.040Z,60.90
2019-05-18T02:39:25.438Z,59.70
2019-05-18T02:41:53.251Z,59.40
2019-05-18T02:44:22.010Z,59.70
2019-05-18T02:46:50.645Z,59.30
2019-05-18T02:49:19.455Z,58.40
2019-05-18T02:51:48.216Z,59.00
2019-05-18T02:54:16.767Z,58.90
2019-05-18T02:56:45.361Z,58.10
2019-05-18T02:59:13.983Z,58.70
2019-05-18T03:01:42.735Z,58.60
2019-05-18T03:04:11.365Z,58.90
2019-05-18T03:06:40.020Z,58.60
2019-05-18T03:09:08.871Z,58.70
2019-05-18T03:11:37.511Z,59.00
2019-05-18T03:14:06.142Z,59.70
2019-05-18T03:16:34.820Z,60.20
2019-05-18T03:19:07.963Z,60.70
2019-05-18T03:21:34.309Z,62.30
2019-05-18T03:24:02.994Z,62.70
2019-05-18T03:26:31.760Z,61.20
2019-05-18T03:29:00.376Z,61.10
2019-05-18T03:31:28.995Z,60.80
2019-05-18T03:33:57.549Z,59.20
2019-05-18T03:36:26.206Z,59.20
2019-05-18T03:38:54.814Z,59.60
2019-05-18T03:41:23.447Z,58.90
2019-05-18T03:43:52.214Z,57.70
2019-05-18T03:46:23.905Z,56.40
2019-05-18T03:48:51.160Z,56.10
2019-05-18T03:51:19.816Z,56.70
2019-05-18T03:53:48.419Z,56.40
2019-05-18T03:56:17.015Z,56.20
2019-05-18T03:58:45.635Z,56.90
2019-05-18T04:01:14.253Z,56.40
2019-05-18T04:03:42.771Z,57.40
2019-05-18T04:06:11.365Z,57.30
2019-05-18T04:08:40.032Z,56.40
2019-05-18T04:11:08.595Z,55.90
2019-05-18T04:13:37.166Z,55.30
2019-05-18T04:16:05.871Z,54.00
2019-05-18T04:18:34.458Z,54.70
2019-05-18T04:21:06.132Z,54.30
2019-05-18T04:23:34.864Z,55.30
2019-05-18T04:26:03.547Z,54.80
2019-05-18T04:28:32.110Z,55.20
2019-05-18T04:31:00.681Z,55.20
2019-05-18T04:33:29.312Z,55.70
2019-05-18T04:35:57.983Z,57.20
2019-05-18T04:38:26.594Z,56.00
2019-05-18T04:40:55.196Z,58.00
2019-05-18T04:43:23.752Z,56.30
2019-05-18T04:45:52.399Z,56.70
2019-05-18T04:48:20.964Z,55.40
2019-05-18T04:50:49.526Z,53.40
2019-05-18T04:53:18.218Z,54.10
2019-05-18T04:55:46.808Z,54.60
2019-05-18T04:58:15.359Z,54.40
2019-05-18T05:00:44.069Z,55.40
2019-05-18T05:03:12.650Z,53.30
2019-05-18T05:05:41.234Z,51.10
2019-05-18T05:08:09.889Z,48.60
2019-05-18T05:10:38.421Z,48.60
2019-05-18T05:13:06.986Z,49.20
2019-05-18T05:15:35.676Z,49.10
2019-05-18T05:18:04.342Z,49.10
2019-05-18T05:20:32.921Z,49.90
2019-05-18T05:23:01.526Z,50.10
2019-05-18T05:25:30.120Z,52.20
2019-05-18T05:27:58.693Z,50.60
2019-05-18T05:30:27.266Z,50.30
2019-05-18T05:32:55.878Z,47.80
2019-05-18T05:35:24.542Z,49.20
2019-05-18T05:37:53.162Z,45.90
2019-05-18T05:40:21.747Z,42.20
2019-05-18T05:42:50.346Z,40.20
2019-05-18T05:45:19.178Z,39.00
2019-05-18T05:47:47.738Z,37.20
2019-05-18T05:50:17.248Z,35.90
2019-05-18T05:52:45.948Z,36.50
2019-05-18T05:55:14.788Z,37.20
2019-05-18T05:57:43.381Z,37.10
2019-05-18T06:00:13.043Z,36.20
2019-05-18T06:02:41.703Z,35.70
2019-05-18T06:05:10.518Z,39.00
2019-05-18T06:07:39.145Z,42.60
2019-05-18T06:10:07.858Z,40.90
2019-05-18T06:12:36.435Z,42.80
2019-05-18T06:15:07.166Z,46.40
2019-05-18T06:17:35.755Z,46.30
2019-05-18T06:20:07.153Z,47.10
2019-05-18T06:22:35.818Z,48.70
2019-05-18T06:25:07.083Z,49.40
2019-05-18T06:27:35.753Z,50.60
2019-05-18T06:30:05.384Z,52.30
2019-05-18T06:32:33.905Z,52.60
2019-05-18T06:35:02.539Z,50.00
2019-05-18T06:37:31.138Z,47.60
2019-05-18T06:39:59.733Z,47.40
2019-05-18T06:42:28.342Z,45.60
2019-05-18T06:44:56.930Z,46.60
2019-05-18T06:47:25.525Z,43.60
2019-05-18T06:49:54.282Z,39.80
2019-05-18T06:52:22.931Z,41.20
2019-05-18T06:54:51.593Z,41.10
2019-05-18T06:57:21.025Z,39.80
2019-05-18T06:59:50.414Z,36.20
2019-05-18T07:02:18.999Z,36.30
2019-05-18T07:04:47.565Z,37.10
2019-05-18T07:07:16.160Z,35.70
2019-05-18T07:09:44.951Z,36.10
2019-05-18T07:12:13.619Z,34.80
2019-05-18T07:14:42.318Z,35.10
2019-05-18T07:17:11.106Z,39.30
2019-05-18T07:19:39.705Z,37.00
2019-05-18T07:22:08.316Z,37.70
2019-05-18T07:24:36.979Z,35.40
2019-05-18T07:27:05.787Z,35.20
2019-05-18T07:29:34.371Z,37.20
2019-05-18T07:32:03.116Z,43.30
2019-05-18T07:34:31.695Z,45.30
2019-05-18T07:37:00.353Z,43.60
2019-05-18T07:39:28.975Z,39.90
2019-05-18T07:41:57.702Z,37.10
2019-05-18T07:44:26.268Z,33.30
2019-05-18T07:46:54.909Z,32.90
2019-05-18T07:49:23.498Z,33.60
2019-05-18T07:51:52.103Z,33.20
2019-05-18T07:54:20.704Z,35.10
2019-05-18T07:56:49.285Z,36.60
2019-05-18T07:59:19.828Z,34.10
2019-05-18T08:01:48.122Z,33.40
2019-05-18T08:04:16.691Z,33.40
2019-05-18T08:06:45.326Z,33.20
2019-05-18T08:09:14.082Z,32.70
2019-05-18T08:11:42.950Z,31.70
2019-05-18T08:14:10.912Z,31.80
2019-05-18T08:16:39.519Z,33.80
2019-05-18T08:19:08.169Z,32.60
2019-05-18T08:21:51.893Z,32.60
2019-05-18T08:24:07.419Z,33.60
2019-05-18T08:26:36.011Z,34.50
2019-05-18T08:29:04.793Z,36.30
2019-05-18T08:31:33.556Z,38.00
2019-05-18T08:34:02.141Z,40.00
2019-05-18T08:36:30.746Z,39.90
2019-05-18T08:38:59.342Z,39.40
2019-05-18T08:41:27.906Z,37.50
2019-05-18T08:43:56.528Z,38.60
2019-05-18T08:46:26.047Z,40.70
2019-05-18T08:48:54.609Z,40.30
2019-05-18T08:51:23.245Z,41.40
2019-05-18T08:53:52.317Z,40.90
2019-05-18T08:56:20.150Z,40.20
2019-05-18T08:58:48.693Z,37.50
2019-05-18T09:01:17.267Z,37.60
2019-05-18T09:03:45.838Z,35.30
2019-05-18T09:06:14.512Z,32.80
2019-05-18T09:08:43.228Z,32.50
2019-05-18T09:11:11.787Z,33.90
2019-05-18T09:13:40.421Z,35.40
2019-05-18T09:16:09.050Z,36.80
2019-05-18T09:18:37.642Z,35.60
2019-05-18T09:21:06.265Z,40.20
2019-05-18T09:23:34.873Z,40.00
2019-05-18T09:26:03.466Z,37.10
2019-05-18T09:28:32.100Z,38.20
2019-05-18T09:31:00.671Z,38.00
2019-05-18T09:33:29.278Z,36.80
2019-05-18T09:35:57.971Z,37.70
2019-05-18T09:38:26.582Z,39.60
2019-05-18T09:40:55.245Z,34.20
2019-05-18T09:43:23.834Z,32.60
2019-05-18T09:45:52.435Z,32.00
2019-05-18T09:48:21.148Z,36.50
2019-05-18T09:50:49.809Z,38.00
2019-05-18T09:53:18.374Z,35.40
2019-05-18T09:55:47.046Z,36.80
2019-05-18T09:58:15.557Z,39.90
2019-05-18T10:00:44.217Z,40.10
2019-05-18T10:03:12.955Z,39.20
2019-05-18T10:05:41.638Z,38.60
2019-05-18T10:08:10.305Z,39.70
2019-05-18T10:10:38.970Z,40.00
2019-05-18T10:13:07.729Z,41.40
2019-05-18T10:15:36.420Z,41.30
2019-05-18T10:18:05.205Z,43.90
2019-05-18T10:20:33.793Z,43.50
2019-05-18T10:23:12.351Z,42.20
2019-05-18T10:25:32.648Z,43.30
2019-05-18T10:28:01.253Z,45.00
2019-05-18T10:30:29.878Z,45.80
2019-05-18T10:32:58.619Z,46.40
2019-05-18T10:35:27.279Z,45.60
2019-05-18T10:37:56.002Z,45.90
2019-05-18T10:40:24.674Z,45.80
2019-05-18T10:42:53.568Z,46.10
2019-05-18T10:45:22.403Z,46.10
2019-05-18T10:47:50.988Z,47.40
2019-05-18T10:50:19.688Z,46.70
2019-05-18T10:52:48.328Z,47.10
2019-05-18T10:55:17.267Z,45.90
2019-05-18T10:57:45.988Z,46.10
2019-05-18T11:00:15.068Z,45.00
2019-05-18T11:02:42.981Z,45.10
2019-05-18T11:05:12.026Z,44.80
2019-05-18T11:07:40.754Z,45.00
2019-05-18T11:10:10.444Z,45.30
2019-05-18T11:12:39.134Z,45.20
2019-05-18T11:15:10.352Z,45.20
2019-05-18T11:17:39.259Z,45.90
2019-05-18T11:20:10.182Z,45.00
2019-05-18T11:22:39.014Z,45.20
2019-05-18T11:25:08.390Z,45.20
2019-05-18T11:27:37.318Z,45.00
2019-05-18T11:30:07.343Z,45.20
2019-05-18T11:32:36.199Z,44.70
2019-05-18T11:35:06.710Z,44.00
2019-05-18T11:37:35.381Z,44.70
2019-05-18T11:40:06.622Z,44.30
2019-05-18T11:42:35.291Z,44.60
2019-05-18T11:45:12.142Z,45.10
2019-05-18T11:47:40.728Z,44.40
2019-05-18T11:50:10.649Z,44.00
2019-05-18T11:52:39.277Z,44.20
2019-05-18T11:55:09.007Z,44.50
2019-05-18T11:57:37.742Z,44.70
2019-05-18T12:00:09.411Z,44.10
2019-05-18T12:02:38.088Z,43.60
2019-05-18T12:05:07.592Z,43.60
2019-05-18T12:07:36.293Z,43.90
2019-05-18T12:10:09.774Z,43.70
2019-05-18T12:12:38.606Z,43.30
2019-05-18T12:15:09.646Z,43.50
2019-05-18T12:17:38.369Z,44.10
2019-05-18T12:20:08.411Z,44.20
2019-05-18T12:22:37.140Z,43.00
2019-05-18T12:25:06.983Z,42.80
2019-05-18T12:27:35.635Z,43.00
2019-05-18T12:30:07.431Z,43.00
2019-05-18T12:32:36.117Z,42.40
2019-05-18T12:35:06.786Z,42.20
2019-05-18T12:37:35.407Z,42.90
2019-05-18T12:40:05.492Z,42.10
2019-05-18T12:42:34.206Z,42.80
2019-05-18T12:45:02.895Z,42.90
2019-05-18T12:47:31.529Z,42.40
2019-05-18T12:50:00.259Z,42.70
2019-05-18T12:52:28.936Z,42.50
2019-05-18T12:54:57.492Z,42.20
2019-05-18T12:57:26.147Z,42.40
2019-05-18T12:59:54.815Z,42.60
2019-05-18T13:02:23.400Z,41.80
2019-05-18T13:04:51.967Z,42.10
2019-05-18T13:07:20.586Z,41.50
2019-05-18T13:09:49.562Z,42.00
2019-05-18T13:12:18.121Z,41.50
2019-05-18T13:14:46.746Z,41.30
2019-05-18T13:17:15.330Z,41.10
2019-05-18T13:19:44.142Z,42.00
2019-05-18T13:22:12.880Z,41.60
2019-05-18T13:24:45.412Z,41.40
2019-05-18T13:27:11.739Z,41.10
2019-05-18T13:29:40.341Z,40.70
2019-05-18T13:32:09.026Z,40.40
2019-05-18T13:34:37.690Z,41.30
2019-05-18T13:37:06.310Z,40.30
2019-05-18T13:39:34.899Z,40.10
2019-05-18T13:42:03.529Z,41.20
2019-05-18T13:44:32.160Z,40.40
2019-05-18T13:47:00.778Z,39.40
2019-05-18T13:49:29.363Z,40.20
2019-05-18T13:51:57.953Z,39.00
2019-05-18T13:54:26.591Z,39.30
2019-05-18T13:56:55.160Z,39.70
2019-05-18T13:59:23.774Z,38.70
2019-05-18T14:01:55.046Z,39.00
2019-05-18T14:04:22.689Z,39.20
2019-05-18T14:06:51.337Z,39.00
2019-05-18T14:09:19.946Z,39.40
2019-05-18T14:11:48.600Z,38.00
2019-05-18T14:14:17.314Z,38.70
2019-05-18T14:16:45.907Z,38.70
2019-05-18T14:19:14.629Z,38.50
2019-05-18T14:21:43.253Z,38.90
2019-05-18T14:24:11.989Z,37.80
2019-05-18T14:26:40.547Z,38.20
2019-05-18T14:29:09.170Z,38.10
2019-05-18T14:31:37.732Z,38.00
2019-05-18T14:34:06.418Z,38.20
2019-05-18T14:36:35.016Z,39.00
2019-05-18T14:39:04.446Z,38.00
2019-05-18T14:41:33.014Z,38.10
2019-05-18T14:44:01.590Z,39.00
2019-05-18T14:46:30.342Z,38.20
2019-05-18T14:48:58.935Z,38.50
2019-05-18T14:51:27.558Z,39.00
2019-05-18T14:53:56.125Z,39.00
2019-05-18T14:56:25.088Z,38.60
2019-05-18T14:58:53.714Z,38.50
2019-05-18T15:01:22.560Z,39.10
2019-05-18T15:03:51.232Z,39.40
2019-05-18T15:06:19.916Z,37.80
2019-05-18T15:08:48.608Z,38.10
2019-05-18T15:11:17.404Z,38.10
2019-05-18T15:13:45.991Z,38.20
2019-05-18T15:16:14.565Z,38.60
2019-05-18T15:18:43.213Z,38.30
2019-05-18T15:21:11.975Z,38.50
2019-05-18T15:23:40.623Z,38.50
2019-05-18T15:26:09.230Z,37.60
2019-05-18T15:28:37.898Z,38.00
2019-05-18T15:31:06.613Z,38.20
2019-05-18T15:33:35.222Z,38.20
2019-05-18T15:36:04.097Z,37.80
2019-05-18T15:38:32.789Z,37.90
2019-05-18T15:41:01.367Z,38.00
2019-05-18T15:43:29.956Z,38.50
2019-05-18T15:45:58.590Z,38.70
2019-05-18T15:48:27.269Z,38.40
2019-05-18T15:50:59.139Z,38.70
2019-05-18T15:53:26.399Z,38.50
2019-05-18T15:56:05.399Z,39.00
2019-05-18T15:58:25.400Z,38.30
2019-05-18T16:00:54.003Z,38.90
2019-05-18T16:03:22.590Z,38.40
2019-05-18T16:05:51.263Z,38.40
2019-05-18T16:08:19.843Z,38.90
2019-05-18T16:10:48.632Z,39.20
2019-05-18T16:13:17.358Z,39.40
2019-05-18T16:15:45.983Z,39.50
2019-05-18T16:18:14.677Z,39.30
2019-05-18T16:20:43.237Z,40.30
2019-05-18T16:23:12.016Z,40.10
2019-05-18T16:25:40.503Z,40.10
2019-05-18T16:28:09.095Z,40.10
2019-05-18T16:30:37.733Z,40.30
2019-05-18T16:33:06.410Z,40.80
2019-05-18T16:35:35.216Z,40.40
2019-05-18T16:38:03.827Z,40.90
2019-05-18T16:40:32.555Z,40.90
2019-05-18T16:43:01.124Z,40.80
2019-05-18T16:45:29.929Z,40.70
2019-05-18T16:47:58.586Z,40.80
2019-05-18T16:50:27.432Z,41.20
2019-05-18T16:52:56.018Z,40.70
2019-05-18T16:55:24.871Z,41.00
2019-05-18T16:57:53.453Z,40.70
2019-05-18T17:00:22.493Z,40.40
2019-05-18T17:02:51.393Z,40.90
2019-05-18T17:05:20.279Z,40.80
2019-05-18T17:07:48.857Z,41.00
2019-05-18T17:10:17.715Z,41.70
2019-05-18T17:12:46.377Z,41.60
2019-05-18T17:15:15.638Z,41.70
2019-05-18T17:17:43.454Z,41.70
2019-05-18T17:20:12.213Z,42.50
2019-05-18T17:22:40.788Z,42.40
2019-05-18T17:25:09.986Z,43.30
2019-05-18T17:27:38.625Z,43.00
2019-05-18T17:30:09.385Z,42.90
2019-05-18T17:32:38.019Z,42.90
2019-05-18T17:35:09.351Z,43.40
2019-05-18T17:37:37.931Z,43.20
2019-05-18T17:40:07.134Z,43.40
2019-05-18T17:42:35.729Z,44.30
2019-05-18T17:45:07.432Z,44.40
2019-05-18T17:47:36.172Z,44.40
2019-05-18T17:50:09.730Z,44.50
2019-05-18T17:52:38.404Z,45.00
2019-05-18T17:55:07.707Z,43.90
2019-05-18T17:57:35.585Z,44.60
2019-05-18T18:00:07.655Z,44.90
2019-05-18T18:02:36.295Z,45.60
2019-05-18T18:05:06.992Z,45.40
2019-05-18T18:07:35.625Z,46.20
2019-05-18T18:10:07.602Z,45.70
2019-05-18T18:12:36.360Z,45.90
2019-05-18T18:15:06.991Z,46.10
2019-05-18T18:17:35.758Z,45.70
2019-05-18T18:20:06.094Z,46.60
2019-05-18T18:22:34.718Z,46.80
2019-05-18T18:25:03.589Z,47.00
2019-05-18T18:27:32.186Z,47.50
2019-05-18T18:30:00.850Z,47.40
2019-05-18T18:32:29.412Z,48.30
2019-05-18T18:34:58.106Z,48.10
2019-05-18T18:37:26.792Z,48.30
2019-05-18T18:39:55.482Z,48.30
2019-05-18T18:42:24.497Z,48.70
2019-05-18T18:44:53.166Z,48.70
2019-05-18T18:47:21.838Z,48.30
2019-05-18T18:49:50.466Z,48.60
2019-05-18T18:52:19.144Z,48.70
2019-05-18T18:54:47.673Z,47.50
2019-05-18T18:57:16.268Z,47.30
2019-05-18T18:59:44.858Z,47.40
2019-05-18T19:02:13.502Z,48.00
2019-05-18T19:04:42.070Z,47.70
2019-05-18T19:07:10.805Z,47.70
2019-05-18T19:09:39.418Z,47.80
2019-05-18T19:12:08.015Z,47.10
2019-05-18T19:14:36.593Z,47.20
2019-05-18T19:17:05.342Z,47.30
2019-05-18T19:19:33.941Z,47.30
2019-05-18T19:22:02.534Z,47.50
2019-05-18T19:24:31.241Z,48.60
2019-05-18T19:26:59.828Z,48.00
2019-05-18T19:29:28.398Z,47.90
2019-05-18T19:31:56.958Z,49.90
2019-05-18T19:34:25.618Z,50.20
2019-05-18T19:36:54.178Z,51.30
2019-05-18T19:39:22.771Z,53.10
2019-05-18T19:41:51.506Z,52.90
2019-05-18T19:44:20.053Z,55.10
2019-05-18T19:46:48.621Z,51.80
2019-05-18T19:49:17.350Z,53.50
2019-05-18T19:51:46.139Z,52.60
2019-05-18T19:54:14.697Z,51.50
2019-05-18T19:56:44.226Z,52.70
2019-05-18T19:59:13.218Z,51.00
2019-05-18T20:01:41.802Z,50.20
2019-05-18T20:04:10.485Z,50.90
2019-05-18T20:06:39.413Z,48.90
2019-05-18T20:09:07.982Z,49.30
2019-05-18T20:11:36.754Z,50.00
2019-05-18T20:14:05.410Z,48.70
2019-05-18T20:16:34.159Z,48.90
2019-05-18T20:19:02.773Z,48.30
2019-05-18T20:21:31.374Z,48.20
2019-05-18T20:23:59.938Z,48.10
2019-05-18T20:26:28.513Z,48.80
2019-05-18T20:28:57.190Z,48.20
2019-05-18T20:31:25.931Z,49.30
2019-05-18T20:33:54.518Z,48.30
2019-05-18T20:36:23.106Z,50.00
2019-05-18T20:38:51.672Z,48.90
2019-05-18T20:41:20.338Z,48.80
2019-05-18T20:43:48.905Z,48.40
2019-05-18T20:46:17.507Z,48.80
2019-05-18T20:48:46.070Z,48.60
2019-05-18T20:51:14.761Z,48.20
2019-05-18T20:53:43.354Z,48.40
2019-05-18T20:56:12.019Z,48.10
2019-05-18T20:58:40.990Z,48.10
2019-05-18T21:01:09.854Z,48.10
2019-05-18T21:03:38.478Z,49.10
2019-05-18T21:06:07.044Z,47.80
2019-05-18T21:08:35.652Z,48.10
2019-05-18T21:11:04.349Z,48.60
2019-05-18T21:13:32.934Z,49.10
2019-05-18T21:16:01.492Z,48.50
2019-05-18T21:18:30.100Z,48.70
2019-05-18T21:20:58.719Z,48.60
2019-05-18T21:23:27.318Z,48.70
2019-05-18T21:25:55.935Z,48.60
2019-05-18T21:28:24.512Z,48.90
2019-05-18T21:30:53.115Z,49.00
2019-05-18T21:33:21.749Z,48.80
2019-05-18T21:35:50.343Z,48.60
2019-05-18T21:38:18.901Z,49.70
2019-05-18T21:40:47.509Z,49.10
2019-05-18T21:43:16.114Z,48.90
2019-05-18T21:45:44.850Z,49.10
2019-05-18T21:48:13.422Z,49.00
2019-05-18T21:50:42.011Z,50.00
2019-05-18T21:53:10.576Z,49.10
2019-05-18T21:55:39.217Z,49.50
2019-05-18T21:58:07.827Z,49.50
2019-05-18T22:00:36.885Z,49.20
2019-05-18T22:03:05.575Z,49.60
2019-05-18T22:05:34.589Z,49.50
2019-05-18T22:08:03.223Z,50.00
2019-05-18T22:10:31.835Z,50.10
2019-05-18T22:13:00.393Z,50.30
2019-05-18T22:15:29.037Z,50.10
2019-05-18T22:18:03.855Z,51.00
2019-05-18T22:20:43.202Z,51.10
2019-05-18T22:23:07.014Z,50.90
2019-05-18T22:25:35.713Z,50.70
2019-05-18T22:28:04.353Z,50.30
2019-05-18T22:30:33.078Z,51.30
2019-05-18T22:33:01.842Z,51.50
2019-05-18T22:35:30.411Z,51.30
2019-05-18T22:37:59.026Z,50.80
2019-05-18T22:40:27.565Z,50.50
2019-05-18T22:42:56.206Z,50.70
2019-05-18T22:45:24.765Z,51.00
2019-05-18T22:47:53.457Z,51.10
2019-05-18T22:50:22.384Z,51.30
2019-05-18T22:52:50.983Z,51.20
2019-05-18T22:55:19.642Z,51.20
2019-05-18T22:57:48.247Z,51.20
2019-05-18T23:00:17.339Z,51.80
2019-05-18T23:02:45.950Z,51.70
2019-05-18T23:05:14.795Z,52.10
2019-05-18T23:07:43.454Z,52.20
2019-05-18T23:10:12.993Z,51.80
2019-05-18T23:12:41.574Z,51.80
2019-05-18T23:15:10.583Z,51.90
2019-05-18T23:17:39.266Z,52.00
2019-05-18T23:20:08.693Z,52.30
2019-05-18T23:22:36.643Z,52.10
2019-05-18T23:25:07.087Z,52.30
2019-05-18T23:27:35.727Z,53.20
2019-05-18T23:30:06.446Z,53.60
2019-05-18T23:32:35.235Z,53.50
2019-05-18T23:35:04.577Z,52.90
2019-05-18T23:37:33.161Z,54.00
2019-05-18T23:40:01.863Z,53.20
2019-05-18T23:42:30.708Z,53.60
2019-05-18T23:44:59.331Z,54.00
2019-05-18T23:47:27.968Z,54.00
2019-05-18T23:49:56.598Z,54.40
2019-05-18T23:52:25.182Z,55.50
2019-05-18T23:54:53.930Z,54.80
2019-05-18T23:57:22.586Z,54.80
2019-05-18T23:59:51.306Z,54.90
